sensor_id;sensor_type;location;lat;lon;timestamp;P1;durP1;ratioP1;P2;durP2;ratioP2
54167;SDS011;68429;50.958;3.592;2023-07-30T00:01:40;26.77;;;3.80;;
54167;SDS011;68429;50.958;3.592;2023-07-30T00:04:06;13.50;;;3.45;;
54167;SDS011;68429;50.958;3.592;2023-07-30T00:06:32;19.25;;;3.15;;
54167;SDS011;68429;50.958;3.592;2023-07-30T00:08:57;16.10;;;3.70;;
54167;SDS011;68429;50.958;3.592;2023-07-30T00:11:23;18.33;;;3.17;;
54167;SDS011;68429;50.958;3.592;2023-07-30T00:13:48;16.98;;;3.67;;
54167;SDS011;68429;50.958;3.592;2023-07-30T00:16:14;16.52;;;3.17;;
54167;SDS011;68429;50.958;3.592;2023-07-30T00:18:40;15.13;;;3.80;;
54167;SDS011;68429;50.958;3.592;2023-07-30T00:21:05;15.77;;;3.47;;
54167;SDS011;68429;50.958;3.592;2023-07-30T00:23:31;17.17;;;3.30;;
54167;SDS011;68429;50.958;3.592;2023-07-30T00:25:57;20.48;;;3.92;;
54167;SDS011;68429;50.958;3.592;2023-07-30T00:28:22;20.23;;;3.33;;
54167;SDS011;68429;50.958;3.592;2023-07-30T00:30:48;13.93;;;3.22;;
54167;SDS011;68429;50.958;3.592;2023-07-30T00:33:14;16.15;;;2.67;;
54167;SDS011;68429;50.958;3.592;2023-07-30T00:35:39;14.38;;;3.95;;
54167;SDS011;68429;50.958;3.592;2023-07-30T00:38:05;11.95;;;2.95;;
54167;SDS011;68429;50.958;3.592;2023-07-30T00:40:30;16.92;;;2.65;;
54167;SDS011;68429;50.958;3.592;2023-07-30T00:42:56;19.98;;;3.65;;
54167;SDS011;68429;50.958;3.592;2023-07-30T00:45:22;22.10;;;3.58;;
54167;SDS011;68429;50.958;3.592;2023-07-30T00:47:47;16.02;;;2.65;;
54167;SDS011;68429;50.958;3.592;2023-07-30T00:50:13;19.77;;;3.63;;
54167;SDS011;68429;50.958;3.592;2023-07-30T00:52:40;25.08;;;3.60;;
54167;SDS011;68429;50.958;3.592;2023-07-30T00:55:06;13.77;;;3.10;;
54167;SDS011;68429;50.958;3.592;2023-07-30T00:57:32;18.75;;;3.47;;
54167;SDS011;68429;50.958;3.592;2023-07-30T01:00:01;18.20;;;3.10;;
54167;SDS011;68429;50.958;3.592;2023-07-30T01:02:31;20.73;;;4.07;;
54167;SDS011;68429;50.958;3.592;2023-07-30T01:04:57;16.60;;;3.17;;
54167;SDS011;68429;50.958;3.592;2023-07-30T01:07:25;14.85;;;3.38;;
54167;SDS011;68429;50.958;3.592;2023-07-30T01:09:51;18.48;;;3.40;;
54167;SDS011;68429;50.958;3.592;2023-07-30T01:12:17;14.63;;;2.80;;
54167;SDS011;68429;50.958;3.592;2023-07-30T01:14:43;15.82;;;2.90;;
54167;SDS011;68429;50.958;3.592;2023-07-30T01:17:11;17.90;;;3.78;;
54167;SDS011;68429;50.958;3.592;2023-07-30T01:19:37;12.88;;;2.85;;
54167;SDS011;68429;50.958;3.592;2023-07-30T01:22:03;17.10;;;2.92;;
54167;SDS011;68429;50.958;3.592;2023-07-30T01:24:28;22.27;;;4.00;;
54167;SDS011;68429;50.958;3.592;2023-07-30T01:27:05;20.08;;;4.03;;
54167;SDS011;68429;50.958;3.592;2023-07-30T01:29:33;27.40;;;3.20;;
54167;SDS011;68429;50.958;3.592;2023-07-30T01:32:13;16.85;;;3.20;;
54167;SDS011;68429;50.958;3.592;2023-07-30T01:34:40;14.18;;;2.97;;
54167;SDS011;68429;50.958;3.592;2023-07-30T01:37:07;20.05;;;3.03;;
54167;SDS011;68429;50.958;3.592;2023-07-30T01:39:35;16.15;;;3.63;;
54167;SDS011;68429;50.958;3.592;2023-07-30T01:42:03;21.10;;;3.75;;
54167;SDS011;68429;50.958;3.592;2023-07-30T01:44:29;20.13;;;2.92;;
54167;SDS011;68429;50.958;3.592;2023-07-30T01:46:55;18.80;;;2.95;;
54167;SDS011;68429;50.958;3.592;2023-07-30T01:49:20;24.25;;;3.53;;
54167;SDS011;68429;50.958;3.592;2023-07-30T01:51:46;16.98;;;3.28;;
54167;SDS011;68429;50.958;3.592;2023-07-30T01:54:12;23.40;;;3.53;;
54167;SDS011;68429;50.958;3.592;2023-07-30T01:56:37;21.40;;;3.78;;
54167;SDS011;68429;50.958;3.592;2023-07-30T01:59:03;22.92;;;3.70;;
54167;SDS011;68429;50.958;3.592;2023-07-30T02:01:29;18.58;;;3.80;;
54167;SDS011;68429;50.958;3.592;2023-07-30T02:03:55;23.58;;;3.35;;
54167;SDS011;68429;50.958;3.592;2023-07-30T02:06:21;25.38;;;4.28;;
54167;SDS011;68429;50.958;3.592;2023-07-30T02:08:47;17.73;;;3.20;;
54167;SDS011;68429;50.958;3.592;2023-07-30T02:11:12;21.10;;;3.10;;
54167;SDS011;68429;50.958;3.592;2023-07-30T02:13:38;26.90;;;3.58;;
54167;SDS011;68429;50.958;3.592;2023-07-30T02:16:04;19.02;;;3.00;;
54167;SDS011;68429;50.958;3.592;2023-07-30T02:18:29;15.50;;;3.20;;
54167;SDS011;68429;50.958;3.592;2023-07-30T02:20:55;21.20;;;3.22;;
54167;SDS011;68429;50.958;3.592;2023-07-30T02:23:20;27.15;;;3.45;;
54167;SDS011;68429;50.958;3.592;2023-07-30T02:25:46;19.45;;;3.05;;
54167;SDS011;68429;50.958;3.592;2023-07-30T02:28:12;17.13;;;3.47;;
54167;SDS011;68429;50.958;3.592;2023-07-30T02:30:37;18.02;;;3.28;;
54167;SDS011;68429;50.958;3.592;2023-07-30T02:33:03;20.90;;;3.75;;
54167;SDS011;68429;50.958;3.592;2023-07-30T02:35:29;20.10;;;3.95;;
54167;SDS011;68429;50.958;3.592;2023-07-30T02:37:54;14.80;;;3.67;;
54167;SDS011;68429;50.958;3.592;2023-07-30T02:40:20;22.52;;;3.65;;
54167;SDS011;68429;50.958;3.592;2023-07-30T02:42:46;23.67;;;4.93;;
54167;SDS011;68429;50.958;3.592;2023-07-30T02:45:11;19.77;;;3.03;;
54167;SDS011;68429;50.958;3.592;2023-07-30T02:47:37;23.98;;;3.40;;
54167;SDS011;68429;50.958;3.592;2023-07-30T02:50:03;18.80;;;3.95;;
54167;SDS011;68429;50.958;3.592;2023-07-30T02:52:31;19.60;;;3.58;;
54167;SDS011;68429;50.958;3.592;2023-07-30T02:54:56;16.23;;;3.67;;
54167;SDS011;68429;50.958;3.592;2023-07-30T02:57:22;23.02;;;3.95;;
54167;SDS011;68429;50.958;3.592;2023-07-30T02:59:48;20.23;;;3.92;;
54167;SDS011;68429;50.958;3.592;2023-07-30T03:02:13;21.50;;;3.50;;
54167;SDS011;68429;50.958;3.592;2023-07-30T03:04:39;21.67;;;4.25;;
54167;SDS011;68429;50.958;3.592;2023-07-30T03:07:05;13.18;;;2.80;;
54167;SDS011;68429;50.958;3.592;2023-07-30T03:09:31;25.50;;;3.55;;
54167;SDS011;68429;50.958;3.592;2023-07-30T03:11:57;20.30;;;4.32;;
54167;SDS011;68429;50.958;3.592;2023-07-30T03:14:24;19.73;;;3.50;;
54167;SDS011;68429;50.958;3.592;2023-07-30T03:16:49;23.48;;;3.90;;
54167;SDS011;68429;50.958;3.592;2023-07-30T03:19:15;15.30;;;3.10;;
54167;SDS011;68429;50.958;3.592;2023-07-30T03:21:41;18.02;;;3.83;;
54167;SDS011;68429;50.958;3.592;2023-07-30T03:24:06;26.13;;;5.07;;
54167;SDS011;68429;50.958;3.592;2023-07-30T03:26:32;16.95;;;3.30;;
54167;SDS011;68429;50.958;3.592;2023-07-30T03:28:58;19.77;;;4.60;;
54167;SDS011;68429;50.958;3.592;2023-07-30T03:31:24;25.80;;;3.70;;
54167;SDS011;68429;50.958;3.592;2023-07-30T03:33:50;29.17;;;4.43;;
54167;SDS011;68429;50.958;3.592;2023-07-30T03:36:15;23.52;;;3.63;;
54167;SDS011;68429;50.958;3.592;2023-07-30T03:38:42;24.27;;;4.18;;
54167;SDS011;68429;50.958;3.592;2023-07-30T03:41:08;20.38;;;3.45;;
54167;SDS011;68429;50.958;3.592;2023-07-30T03:43:34;22.45;;;3.78;;
54167;SDS011;68429;50.958;3.592;2023-07-30T03:46:00;28.65;;;3.83;;
54167;SDS011;68429;50.958;3.592;2023-07-30T03:48:26;25.27;;;3.78;;
54167;SDS011;68429;50.958;3.592;2023-07-30T03:50:55;24.55;;;3.90;;
54167;SDS011;68429;50.958;3.592;2023-07-30T03:53:21;19.08;;;3.67;;
54167;SDS011;68429;50.958;3.592;2023-07-30T03:55:47;22.02;;;3.75;;
54167;SDS011;68429;50.958;3.592;2023-07-30T03:58:13;25.30;;;4.70;;
54167;SDS011;68429;50.958;3.592;2023-07-30T04:00:39;28.88;;;4.43;;
54167;SDS011;68429;50.958;3.592;2023-07-30T04:03:05;23.13;;;4.10;;
54167;SDS011;68429;50.958;3.592;2023-07-30T04:05:31;19.30;;;3.00;;
54167;SDS011;68429;50.958;3.592;2023-07-30T04:07:57;29.52;;;5.63;;
54167;SDS011;68429;50.958;3.592;2023-07-30T04:10:22;27.15;;;3.83;;
54167;SDS011;68429;50.958;3.592;2023-07-30T04:12:48;25.48;;;3.88;;
54167;SDS011;68429;50.958;3.592;2023-07-30T04:15:14;19.30;;;3.28;;
54167;SDS011;68429;50.958;3.592;2023-07-30T04:17:41;25.55;;;4.18;;
54167;SDS011;68429;50.958;3.592;2023-07-30T04:20:07;23.98;;;5.28;;
54167;SDS011;68429;50.958;3.592;2023-07-30T04:22:34;19.52;;;3.17;;
54167;SDS011;68429;50.958;3.592;2023-07-30T04:25:01;27.00;;;4.45;;
54167;SDS011;68429;50.958;3.592;2023-07-30T04:27:26;21.67;;;4.38;;
54167;SDS011;68429;50.958;3.592;2023-07-30T04:29:52;23.42;;;4.15;;
54167;SDS011;68429;50.958;3.592;2023-07-30T04:32:18;17.00;;;3.67;;
54167;SDS011;68429;50.958;3.592;2023-07-30T04:34:43;23.25;;;4.90;;
54167;SDS011;68429;50.958;3.592;2023-07-30T04:37:09;21.85;;;3.65;;
54167;SDS011;68429;50.958;3.592;2023-07-30T04:39:35;27.10;;;4.07;;
54167;SDS011;68429;50.958;3.592;2023-07-30T04:42:01;24.70;;;4.13;;
54167;SDS011;68429;50.958;3.592;2023-07-30T04:44:27;26.33;;;4.10;;
54167;SDS011;68429;50.958;3.592;2023-07-30T04:46:53;20.10;;;4.22;;
54167;SDS011;68429;50.958;3.592;2023-07-30T04:49:19;26.05;;;4.00;;
54167;SDS011;68429;50.958;3.592;2023-07-30T04:51:44;23.70;;;3.85;;
54167;SDS011;68429;50.958;3.592;2023-07-30T04:54:10;23.45;;;4.15;;
54167;SDS011;68429;50.958;3.592;2023-07-30T04:56:36;24.00;;;3.97;;
54167;SDS011;68429;50.958;3.592;2023-07-30T04:59:01;22.10;;;4.55;;
54167;SDS011;68429;50.958;3.592;2023-07-30T05:01:27;24.45;;;4.10;;
54167;SDS011;68429;50.958;3.592;2023-07-30T05:03:53;17.73;;;3.10;;
54167;SDS011;68429;50.958;3.592;2023-07-30T05:06:19;17.40;;;3.88;;
54167;SDS011;68429;50.958;3.592;2023-07-30T05:08:45;23.10;;;4.28;;
54167;SDS011;68429;50.958;3.592;2023-07-30T05:11:10;21.52;;;3.85;;
54167;SDS011;68429;50.958;3.592;2023-07-30T05:13:36;25.38;;;4.18;;
54167;SDS011;68429;50.958;3.592;2023-07-30T05:16:02;20.38;;;3.30;;
54167;SDS011;68429;50.958;3.592;2023-07-30T05:18:28;17.52;;;4.60;;
54167;SDS011;68429;50.958;3.592;2023-07-30T05:20:54;28.83;;;4.60;;
54167;SDS011;68429;50.958;3.592;2023-07-30T05:23:20;24.88;;;4.53;;
54167;SDS011;68429;50.958;3.592;2023-07-30T05:25:45;22.27;;;4.32;;
54167;SDS011;68429;50.958;3.592;2023-07-30T05:28:11;24.85;;;4.63;;
54167;SDS011;68429;50.958;3.592;2023-07-30T05:30:37;24.30;;;4.20;;
54167;SDS011;68429;50.958;3.592;2023-07-30T05:33:03;26.48;;;4.18;;
54167;SDS011;68429;50.958;3.592;2023-07-30T05:35:28;18.05;;;3.90;;
54167;SDS011;68429;50.958;3.592;2023-07-30T05:37:54;20.15;;;3.88;;
54167;SDS011;68429;50.958;3.592;2023-07-30T05:40:20;20.70;;;3.95;;
54167;SDS011;68429;50.958;3.592;2023-07-30T05:42:46;24.77;;;3.80;;
54167;SDS011;68429;50.958;3.592;2023-07-30T05:45:12;25.25;;;4.18;;
54167;SDS011;68429;50.958;3.592;2023-07-30T05:47:38;18.98;;;3.65;;
54167;SDS011;68429;50.958;3.592;2023-07-30T05:50:04;18.15;;;3.22;;
54167;SDS011;68429;50.958;3.592;2023-07-30T05:52:31;25.00;;;3.72;;
54167;SDS011;68429;50.958;3.592;2023-07-30T05:54:56;23.15;;;4.18;;
54167;SDS011;68429;50.958;3.592;2023-07-30T05:57:22;25.25;;;3.85;;
54167;SDS011;68429;50.958;3.592;2023-07-30T05:59:47;18.83;;;3.88;;
54167;SDS011;68429;50.958;3.592;2023-07-30T06:02:13;19.05;;;3.83;;
54167;SDS011;68429;50.958;3.592;2023-07-30T06:04:39;21.17;;;3.88;;
54167;SDS011;68429;50.958;3.592;2023-07-30T06:07:04;21.25;;;3.38;;
54167;SDS011;68429;50.958;3.592;2023-07-30T06:09:30;16.52;;;3.90;;
54167;SDS011;68429;50.958;3.592;2023-07-30T06:11:57;22.70;;;4.10;;
54167;SDS011;68429;50.958;3.592;2023-07-30T06:14:23;19.30;;;3.58;;
54167;SDS011;68429;50.958;3.592;2023-07-30T06:16:49;27.38;;;3.95;;
54167;SDS011;68429;50.958;3.592;2023-07-30T06:19:15;22.70;;;3.70;;
54167;SDS011;68429;50.958;3.592;2023-07-30T06:21:40;25.38;;;4.15;;
54167;SDS011;68429;50.958;3.592;2023-07-30T06:24:06;27.17;;;4.10;;
54167;SDS011;68429;50.958;3.592;2023-07-30T06:26:32;16.33;;;4.03;;
54167;SDS011;68429;50.958;3.592;2023-07-30T06:28:57;19.98;;;4.32;;
54167;SDS011;68429;50.958;3.592;2023-07-30T06:31:23;26.27;;;4.65;;
54167;SDS011;68429;50.958;3.592;2023-07-30T06:33:49;18.95;;;3.55;;
54167;SDS011;68429;50.958;3.592;2023-07-30T06:36:15;19.77;;;3.88;;
54167;SDS011;68429;50.958;3.592;2023-07-30T06:38:41;23.73;;;4.38;;
54167;SDS011;68429;50.958;3.592;2023-07-30T06:41:07;15.35;;;3.35;;
54167;SDS011;68429;50.958;3.592;2023-07-30T06:43:32;21.00;;;3.80;;
54167;SDS011;68429;50.958;3.592;2023-07-30T06:45:58;18.90;;;3.35;;
54167;SDS011;68429;50.958;3.592;2023-07-30T06:48:24;23.45;;;4.32;;
54167;SDS011;68429;50.958;3.592;2023-07-30T06:50:49;15.57;;;3.30;;
54167;SDS011;68429;50.958;3.592;2023-07-30T06:53:15;23.75;;;4.00;;
54167;SDS011;68429;50.958;3.592;2023-07-30T06:55:41;21.17;;;3.92;;
54167;SDS011;68429;50.958;3.592;2023-07-30T06:58:06;17.92;;;4.57;;
54167;SDS011;68429;50.958;3.592;2023-07-30T07:00:32;21.58;;;3.67;;
54167;SDS011;68429;50.958;3.592;2023-07-30T07:02:58;19.65;;;4.03;;
54167;SDS011;68429;50.958;3.592;2023-07-30T07:05:23;29.98;;;4.40;;
54167;SDS011;68429;50.958;3.592;2023-07-30T07:07:49;19.08;;;3.55;;
54167;SDS011;68429;50.958;3.592;2023-07-30T07:10:15;20.20;;;3.95;;
54167;SDS011;68429;50.958;3.592;2023-07-30T07:12:41;15.07;;;3.17;;
54167;SDS011;68429;50.958;3.592;2023-07-30T07:15:07;19.90;;;3.90;;
54167;SDS011;68429;50.958;3.592;2023-07-30T07:17:33;17.02;;;3.42;;
54167;SDS011;68429;50.958;3.592;2023-07-30T07:19:58;12.98;;;3.20;;
54167;SDS011;68429;50.958;3.592;2023-07-30T07:22:24;14.23;;;3.72;;
54167;SDS011;68429;50.958;3.592;2023-07-30T07:24:53;16.52;;;3.58;;
54167;SDS011;68429;50.958;3.592;2023-07-30T07:27:19;16.88;;;2.92;;
54167;SDS011;68429;50.958;3.592;2023-07-30T07:29:46;16.40;;;3.17;;
54167;SDS011;68429;50.958;3.592;2023-07-30T07:32:11;12.90;;;3.25;;
54167;SDS011;68429;50.958;3.592;2023-07-30T07:34:37;14.65;;;2.85;;
54167;SDS011;68429;50.958;3.592;2023-07-30T07:37:02;16.17;;;3.30;;
54167;SDS011;68429;50.958;3.592;2023-07-30T07:39:28;20.02;;;3.95;;
54167;SDS011;68429;50.958;3.592;2023-07-30T07:41:55;15.32;;;3.42;;
54167;SDS011;68429;50.958;3.592;2023-07-30T07:44:20;13.85;;;3.38;;
54167;SDS011;68429;50.958;3.592;2023-07-30T07:46:47;17.13;;;3.55;;
54167;SDS011;68429;50.958;3.592;2023-07-30T07:49:13;15.88;;;3.58;;
54167;SDS011;68429;50.958;3.592;2023-07-30T07:51:39;14.55;;;3.45;;
54167;SDS011;68429;50.958;3.592;2023-07-30T07:54:04;12.73;;;2.00;;
54167;SDS011;68429;50.958;3.592;2023-07-30T07:56:31;17.08;;;3.20;;
54167;SDS011;68429;50.958;3.592;2023-07-30T07:58:57;9.75;;;2.13;;
54167;SDS011;68429;50.958;3.592;2023-07-30T08:01:23;8.45;;;1.92;;
54167;SDS011;68429;50.958;3.592;2023-07-30T08:03:48;11.63;;;2.10;;
54167;SDS011;68429;50.958;3.592;2023-07-30T08:06:14;8.32;;;1.92;;
54167;SDS011;68429;50.958;3.592;2023-07-30T08:08:40;8.98;;;2.08;;
54167;SDS011;68429;50.958;3.592;2023-07-30T08:11:06;14.15;;;2.47;;
54167;SDS011;68429;50.958;3.592;2023-07-30T08:13:32;12.13;;;2.22;;
54167;SDS011;68429;50.958;3.592;2023-07-30T08:15:58;14.90;;;2.15;;
54167;SDS011;68429;50.958;3.592;2023-07-30T08:18:24;9.52;;;2.67;;
54167;SDS011;68429;50.958;3.592;2023-07-30T08:20:50;14.75;;;3.03;;
54167;SDS011;68429;50.958;3.592;2023-07-30T08:23:15;12.55;;;2.75;;
54167;SDS011;68429;50.958;3.592;2023-07-30T08:25:41;14.38;;;2.65;;
54167;SDS011;68429;50.958;3.592;2023-07-30T08:28:07;14.40;;;2.45;;
54167;SDS011;68429;50.958;3.592;2023-07-30T08:30:33;11.80;;;2.22;;
54167;SDS011;68429;50.958;3.592;2023-07-30T08:32:58;13.88;;;3.08;;
54167;SDS011;68429;50.958;3.592;2023-07-30T08:35:24;11.20;;;2.55;;
54167;SDS011;68429;50.958;3.592;2023-07-30T08:37:51;17.77;;;3.13;;
54167;SDS011;68429;50.958;3.592;2023-07-30T08:40:17;12.32;;;3.00;;
54167;SDS011;68429;50.958;3.592;2023-07-30T08:42:43;15.93;;;2.38;;
54167;SDS011;68429;50.958;3.592;2023-07-30T08:45:09;12.43;;;2.50;;
54167;SDS011;68429;50.958;3.592;2023-07-30T08:47:35;12.32;;;2.75;;
54167;SDS011;68429;50.958;3.592;2023-07-30T08:50:04;14.48;;;2.80;;
54167;SDS011;68429;50.958;3.592;2023-07-30T08:52:30;11.77;;;2.40;;
54167;SDS011;68429;50.958;3.592;2023-07-30T08:54:57;9.50;;;2.13;;
54167;SDS011;68429;50.958;3.592;2023-07-30T08:57:26;8.93;;;2.08;;
54167;SDS011;68429;50.958;3.592;2023-07-30T08:59:54;10.30;;;2.20;;
54167;SDS011;68429;50.958;3.592;2023-07-30T09:02:30;8.80;;;2.10;;
54167;SDS011;68429;50.958;3.592;2023-07-30T09:05:00;10.57;;;2.25;;
54167;SDS011;68429;50.958;3.592;2023-07-30T09:07:26;9.73;;;2.35;;
54167;SDS011;68429;50.958;3.592;2023-07-30T09:09:53;8.25;;;2.05;;
54167;SDS011;68429;50.958;3.592;2023-07-30T09:12:19;10.07;;;2.40;;
54167;SDS011;68429;50.958;3.592;2023-07-30T09:14:46;10.15;;;2.10;;
54167;SDS011;68429;50.958;3.592;2023-07-30T09:17:16;10.20;;;1.95;;
54167;SDS011;68429;50.958;3.592;2023-07-30T09:19:43;13.55;;;2.58;;
54167;SDS011;68429;50.958;3.592;2023-07-30T09:22:08;10.07;;;2.55;;
54167;SDS011;68429;50.958;3.592;2023-07-30T09:24:34;10.65;;;2.40;;
54167;SDS011;68429;50.958;3.592;2023-07-30T09:27:03;12.85;;;2.38;;
54167;SDS011;68429;50.958;3.592;2023-07-30T09:29:29;10.45;;;2.13;;
54167;SDS011;68429;50.958;3.592;2023-07-30T09:31:55;5.55;;;1.67;;
54167;SDS011;68429;50.958;3.592;2023-07-30T09:34:21;7.93;;;1.90;;
54167;SDS011;68429;50.958;3.592;2023-07-30T09:36:54;9.00;;;2.03;;
54167;SDS011;68429;50.958;3.592;2023-07-30T09:39:21;10.30;;;2.13;;
54167;SDS011;68429;50.958;3.592;2023-07-30T09:41:49;10.00;;;1.63;;
54167;SDS011;68429;50.958;3.592;2023-07-30T09:44:16;5.72;;;1.90;;
54167;SDS011;68429;50.958;3.592;2023-07-30T09:46:44;11.90;;;3.03;;
54167;SDS011;68429;50.958;3.592;2023-07-30T09:49:11;11.95;;;2.53;;
54167;SDS011;68429;50.958;3.592;2023-07-30T09:51:39;11.25;;;2.60;;
54167;SDS011;68429;50.958;3.592;2023-07-30T09:54:10;10.13;;;1.70;;
54167;SDS011;68429;50.958;3.592;2023-07-30T09:56:37;10.88;;;2.53;;
54167;SDS011;68429;50.958;3.592;2023-07-30T09:59:05;6.28;;;1.50;;
54167;SDS011;68429;50.958;3.592;2023-07-30T10:01:32;9.52;;;2.45;;
54167;SDS011;68429;50.958;3.592;2023-07-30T10:04:11;8.75;;;2.13;;
54167;SDS011;68429;50.958;3.592;2023-07-30T10:06:56;10.70;;;2.22;;
54167;SDS011;68429;50.958;3.592;2023-07-30T10:09:25;9.05;;;2.08;;
54167;SDS011;68429;50.958;3.592;2023-07-30T10:11:55;11.35;;;1.73;;
54167;SDS011;68429;50.958;3.592;2023-07-30T10:14:22;6.88;;;1.52;;
54167;SDS011;68429;50.958;3.592;2023-07-30T10:16:50;10.20;;;1.95;;
54167;SDS011;68429;50.958;3.592;2023-07-30T10:19:17;11.02;;;1.40;;
54167;SDS011;68429;50.958;3.592;2023-07-30T10:24:12;9.38;;;1.73;;
54167;SDS011;68429;50.958;3.592;2023-07-30T10:26:37;6.55;;;1.70;;
54167;SDS011;68429;50.958;3.592;2023-07-30T10:31:49;9.82;;;2.13;;
54167;SDS011;68429;50.958;3.592;2023-07-30T10:34:21;7.07;;;1.50;;
54167;SDS011;68429;50.958;3.592;2023-07-30T10:36:49;10.57;;;2.22;;
54167;SDS011;68429;50.958;3.592;2023-07-30T10:39:16;5.43;;;1.45;;
54167;SDS011;68429;50.958;3.592;2023-07-30T10:41:50;6.28;;;1.73;;
54167;SDS011;68429;50.958;3.592;2023-07-30T10:44:27;6.38;;;1.40;;
54167;SDS011;68429;50.958;3.592;2023-07-30T10:46:54;4.22;;;1.10;;
54167;SDS011;68429;50.958;3.592;2023-07-30T10:49:20;7.53;;;1.60;;
54167;SDS011;68429;50.958;3.592;2023-07-30T10:51:46;6.25;;;1.48;;
54167;SDS011;68429;50.958;3.592;2023-07-30T10:54:13;6.95;;;1.45;;
54167;SDS011;68429;50.958;3.592;2023-07-30T10:56:40;5.97;;;1.38;;
54167;SDS011;68429;50.958;3.592;2023-07-30T10:59:06;3.70;;;1.33;;
54167;SDS011;68429;50.958;3.592;2023-07-30T11:01:36;7.32;;;1.60;;
54167;SDS011;68429;50.958;3.592;2023-07-30T11:04:24;6.03;;;1.50;;
54167;SDS011;68429;50.958;3.592;2023-07-30T11:06:50;8.10;;;2.05;;
54167;SDS011;68429;50.958;3.592;2023-07-30T11:11:49;3.97;;;1.40;;
54167;SDS011;68429;50.958;3.592;2023-07-30T11:14:16;4.43;;;1.13;;
54167;SDS011;68429;50.958;3.592;2023-07-30T11:16:49;7.50;;;1.75;;
54167;SDS011;68429;50.958;3.592;2023-07-30T11:19:16;5.10;;;1.45;;
54167;SDS011;68429;50.958;3.592;2023-07-30T11:21:46;4.18;;;1.23;;
54167;SDS011;68429;50.958;3.592;2023-07-30T11:24:13;7.57;;;1.42;;
54167;SDS011;68429;50.958;3.592;2023-07-30T11:26:39;6.55;;;1.75;;
54167;SDS011;68429;50.958;3.592;2023-07-30T11:29:14;3.33;;;1.65;;
54167;SDS011;68429;50.958;3.592;2023-07-30T11:31:44;5.88;;;1.33;;
54167;SDS011;68429;50.958;3.592;2023-07-30T11:34:11;6.03;;;1.77;;
54167;SDS011;68429;50.958;3.592;2023-07-30T11:36:38;7.10;;;1.60;;
54167;SDS011;68429;50.958;3.592;2023-07-30T11:39:04;9.38;;;1.52;;
54167;SDS011;68429;50.958;3.592;2023-07-30T11:41:31;8.13;;;1.73;;
54167;SDS011;68429;50.958;3.592;2023-07-30T11:43:58;4.03;;;1.20;;
54167;SDS011;68429;50.958;3.592;2023-07-30T11:46:24;5.32;;;1.45;;
54167;SDS011;68429;50.958;3.592;2023-07-30T11:48:51;7.95;;;1.65;;
54167;SDS011;68429;50.958;3.592;2023-07-30T11:51:22;3.95;;;1.27;;
54167;SDS011;68429;50.958;3.592;2023-07-30T11:58:49;6.65;;;1.50;;
54167;SDS011;68429;50.958;3.592;2023-07-30T12:01:15;6.40;;;1.70;;
54167;SDS011;68429;50.958;3.592;2023-07-30T12:03:42;4.60;;;1.23;;
54167;SDS011;68429;50.958;3.592;2023-07-30T12:06:09;4.55;;;1.30;;
54167;SDS011;68429;50.958;3.592;2023-07-30T12:08:35;7.18;;;1.33;;
54167;SDS011;68429;50.958;3.592;2023-07-30T12:11:05;3.85;;;1.10;;
54167;SDS011;68429;50.958;3.592;2023-07-30T12:13:31;5.93;;;1.25;;
54167;SDS011;68429;50.958;3.592;2023-07-30T12:15:58;3.53;;;1.63;;
54167;SDS011;68429;50.958;3.592;2023-07-30T12:18:24;6.13;;;1.63;;
54167;SDS011;68429;50.958;3.592;2023-07-30T12:20:51;5.72;;;1.42;;
54167;SDS011;68429;50.958;3.592;2023-07-30T12:23:18;7.03;;;2.03;;
54167;SDS011;68429;50.958;3.592;2023-07-30T12:25:44;5.35;;;1.52;;
54167;SDS011;68429;50.958;3.592;2023-07-30T12:28:11;8.30;;;2.03;;
54167;SDS011;68429;50.958;3.592;2023-07-30T12:30:37;6.75;;;1.70;;
54167;SDS011;68429;50.958;3.592;2023-07-30T12:33:03;9.52;;;1.85;;
54167;SDS011;68429;50.958;3.592;2023-07-30T12:35:30;5.00;;;1.50;;
54167;SDS011;68429;50.958;3.592;2023-07-30T12:37:57;6.95;;;1.85;;
54167;SDS011;68429;50.958;3.592;2023-07-30T12:40:23;5.30;;;2.03;;
54167;SDS011;68429;50.958;3.592;2023-07-30T12:42:48;5.93;;;2.03;;
54167;SDS011;68429;50.958;3.592;2023-07-30T12:45:14;4.55;;;2.05;;
54167;SDS011;68429;50.958;3.592;2023-07-30T12:47:40;6.05;;;1.98;;
54167;SDS011;68429;50.958;3.592;2023-07-30T12:50:06;6.68;;;2.05;;
54167;SDS011;68429;50.958;3.592;2023-07-30T12:52:33;5.40;;;1.98;;
54167;SDS011;68429;50.958;3.592;2023-07-30T12:54:59;9.20;;;2.03;;
54167;SDS011;68429;50.958;3.592;2023-07-30T12:57:26;12.20;;;3.20;;
54167;SDS011;68429;50.958;3.592;2023-07-30T12:59:52;9.75;;;2.53;;
54167;SDS011;68429;50.958;3.592;2023-07-30T13:02:18;6.45;;;1.85;;
54167;SDS011;68429;50.958;3.592;2023-07-30T13:04:43;5.72;;;1.92;;
54167;SDS011;68429;50.958;3.592;2023-07-30T13:07:09;6.22;;;2.08;;
54167;SDS011;68429;50.958;3.592;2023-07-30T13:09:35;9.73;;;1.95;;
54167;SDS011;68429;50.958;3.592;2023-07-30T13:12:00;10.02;;;1.85;;
54167;SDS011;68429;50.958;3.592;2023-07-30T13:14:26;6.07;;;1.92;;
54167;SDS011;68429;50.958;3.592;2023-07-30T13:16:52;7.72;;;2.80;;
54167;SDS011;68429;50.958;3.592;2023-07-30T13:19:17;5.40;;;2.08;;
54167;SDS011;68429;50.958;3.592;2023-07-30T13:21:43;7.82;;;2.03;;
54167;SDS011;68429;50.958;3.592;2023-07-30T13:24:09;10.32;;;2.28;;
54167;SDS011;68429;50.958;3.592;2023-07-30T13:26:35;8.13;;;2.40;;
54167;SDS011;68429;50.958;3.592;2023-07-30T13:29:01;9.20;;;2.35;;
54167;SDS011;68429;50.958;3.592;2023-07-30T13:31:26;8.75;;;2.30;;
54167;SDS011;68429;50.958;3.592;2023-07-30T13:33:52;11.65;;;2.30;;
54167;SDS011;68429;50.958;3.592;2023-07-30T13:36:18;10.73;;;2.65;;
54167;SDS011;68429;50.958;3.592;2023-07-30T13:38:44;10.75;;;3.13;;
54167;SDS011;68429;50.958;3.592;2023-07-30T13:41:09;7.82;;;2.45;;
54167;SDS011;68429;50.958;3.592;2023-07-30T13:43:35;9.18;;;2.63;;
54167;SDS011;68429;50.958;3.592;2023-07-30T13:46:01;10.85;;;2.47;;
54167;SDS011;68429;50.958;3.592;2023-07-30T13:48:26;11.93;;;3.15;;
54167;SDS011;68429;50.958;3.592;2023-07-30T13:50:52;7.05;;;2.50;;
54167;SDS011;68429;50.958;3.592;2023-07-30T13:53:18;13.45;;;2.90;;
54167;SDS011;68429;50.958;3.592;2023-07-30T13:55:44;8.68;;;2.78;;
54167;SDS011;68429;50.958;3.592;2023-07-30T13:58:10;12.48;;;2.70;;
54167;SDS011;68429;50.958;3.592;2023-07-30T14:00:36;8.45;;;2.75;;
54167;SDS011;68429;50.958;3.592;2023-07-30T14:03:02;9.40;;;3.13;;
54167;SDS011;68429;50.958;3.592;2023-07-30T14:05:27;9.85;;;2.15;;
54167;SDS011;68429;50.958;3.592;2023-07-30T14:07:54;11.55;;;3.05;;
54167;SDS011;68429;50.958;3.592;2023-07-30T14:10:22;9.57;;;2.78;;
54167;SDS011;68429;50.958;3.592;2023-07-30T14:12:48;8.27;;;2.55;;
54167;SDS011;68429;50.958;3.592;2023-07-30T14:15:14;8.32;;;2.92;;
54167;SDS011;68429;50.958;3.592;2023-07-30T14:17:40;8.55;;;3.15;;
54167;SDS011;68429;50.958;3.592;2023-07-30T14:20:07;8.20;;;3.05;;
54167;SDS011;68429;50.958;3.592;2023-07-30T14:22:34;7.80;;;2.60;;
54167;SDS011;68429;50.958;3.592;2023-07-30T14:25:00;7.03;;;2.55;;
54167;SDS011;68429;50.958;3.592;2023-07-30T14:27:26;8.82;;;3.03;;
54167;SDS011;68429;50.958;3.592;2023-07-30T14:29:52;11.50;;;2.35;;
54167;SDS011;68429;50.958;3.592;2023-07-30T14:32:21;8.95;;;2.88;;
54167;SDS011;68429;50.958;3.592;2023-07-30T14:34:46;9.95;;;3.30;;
54167;SDS011;68429;50.958;3.592;2023-07-30T14:37:12;8.05;;;2.20;;
54167;SDS011;68429;50.958;3.592;2023-07-30T14:39:38;7.70;;;2.72;;
54167;SDS011;68429;50.958;3.592;2023-07-30T14:42:05;7.00;;;2.53;;
54167;SDS011;68429;50.958;3.592;2023-07-30T14:44:31;8.55;;;3.10;;
54167;SDS011;68429;50.958;3.592;2023-07-30T14:46:57;5.97;;;2.55;;